KOWD

Norwood Memorial Airport

Norwood, Massachusetts, USA
METAR KOWD 212253Z 10006KT 10SM BKN100 23/13 A2980 RMK AO2 SLP091 T02330133
Observed Flight Rules
Jun-21 @ 22:53 UTC (58 minutes ago) Visual Flight Rules
Wind Visibility Clouds
100° at 6 knots 10 miles
  • Broken at 10,000' AGL
Temperatures Readings
Current 23°C / 73°F
Dewpoint 13°C / 55°F
Humidity 53%
Altimeter 29.8" Hg
Pressure 1009.1 hPa
Elevation 19
METAR KOWD 212253Z 10006KT 10SM BKN100 23/13 A2980 RMK AO2 SLP091 T02330133
Observed Flight Rules
Jun-21 @ 22:53 UTC
(58 minutes ago)
VFR
Wind Visibility
100° at 6 knots 10 miles
Clouds
  • Broken at 10,000' AGL
Temperature Dewpoint
23°C / 73°F 13°C / 55°F
Humidity Altimeter Pressure
53% 29.8" Hg 1009.1 hPa